createdAt,value
2019-04-19T00:01:22.654Z,14.30
2019-04-19T00:06:36.452Z,14.30
2019-04-19T00:11:40.358Z,14.10
2019-04-19T00:16:34.147Z,14.20
2019-04-19T00:21:57.972Z,14.10
2019-04-19T00:26:36.013Z,14.00
2019-04-19T00:31:46.343Z,14.00
2019-04-19T00:36:38.297Z,13.90
2019-04-19T00:42:05.059Z,13.90
2019-04-19T00:47:12.063Z,13.90
2019-04-19T00:52:00.133Z,13.80
2019-04-19T00:56:58.169Z,13.70
2019-04-19T01:01:56.522Z,13.70
2019-04-19T01:06:57.103Z,13.70
2019-04-19T01:12:07.929Z,13.80
2019-04-19T01:17:07.500Z,13.80
2019-04-19T01:21:55.717Z,13.80
2019-04-19T01:26:57.513Z,13.90
2019-04-19T01:32:04.498Z,13.90
2019-04-19T01:36:58.970Z,13.90
2019-04-19T01:42:17.560Z,13.90
2019-04-19T01:47:29.373Z,13.80
2019-04-19T01:52:38.277Z,13.70
2019-04-19T01:57:14.258Z,13.60
2019-04-19T02:02:17.441Z,13.60
2019-04-19T02:07:21.755Z,13.60
2019-04-19T02:12:32.125Z,13.60
2019-04-19T02:17:18.017Z,13.60
2019-04-19T02:22:25.717Z,13.50
2019-04-19T02:27:20.038Z,13.40
2019-04-19T02:32:34.120Z,13.30
2019-04-19T02:37:43.764Z,13.30
2019-04-19T02:48:00.562Z,13.20
2019-04-19T02:52:47.231Z,13.10
2019-04-19T02:57:59.243Z,13.00
2019-04-19T03:03:06.069Z,13.10
2019-04-19T03:07:45.678Z,13.00
2019-04-19T03:13:03.358Z,12.90
2019-04-19T03:18:03.496Z,12.90
2019-04-19T03:23:03.080Z,12.70
2019-04-19T03:28:02.138Z,12.70
2019-04-19T03:33:17.083Z,12.70
2019-04-19T03:38:11.433Z,12.70
2019-04-19T03:43:31.362Z,12.60
2019-04-19T03:48:27.260Z,12.50
2019-04-19T03:53:39.458Z,12.50
2019-04-19T03:58:18.200Z,12.40
2019-04-19T04:03:22.411Z,12.40
2019-04-19T04:08:23.056Z,12.40
2019-04-19T04:13:37.301Z,12.30
2019-04-19T04:18:28.215Z,12.20
2019-04-19T04:23:36.474Z,12.00
2019-04-19T04:28:42.626Z,12.00
2019-04-19T04:33:42.536Z,12.00
2019-04-19T04:38:38.012Z,12.00
2019-04-19T04:43:43.469Z,12.00
2019-04-19T04:48:58.313Z,12.00
2019-04-19T04:53:47.095Z,12.00
2019-04-19T04:58:49.055Z,12.10
2019-04-19T05:04:01.903Z,12.10
2019-04-19T05:09:06.551Z,12.20
2019-04-19T05:14:12.634Z,12.30
2019-04-19T05:19:09.526Z,12.50
2019-04-19T05:24:19.139Z,12.70
2019-04-19T05:29:06.369Z,12.80
2019-04-19T05:34:17.701Z,13.00
2019-04-19T05:39:26.365Z,13.10
2019-04-19T05:49:25.208Z,13.20
2019-04-19T05:54:13.611Z,13.40
2019-04-19T05:59:21.499Z,13.50
2019-04-19T06:04:32.315Z,13.40
2019-04-19T06:09:15.410Z,13.60
2019-04-19T06:14:43.349Z,13.80
2019-04-19T06:19:32.268Z,14.00
2019-04-19T06:24:38.301Z,14.20
2019-04-19T06:29:43.913Z,14.50
2019-04-19T06:34:37.673Z,14.60
2019-04-19T06:39:22.525Z,14.90
2019-04-19T06:44:44.711Z,15.00
2019-04-19T06:49:27.884Z,15.20
2019-04-19T06:54:31.725Z,15.60
2019-04-19T06:59:45.700Z,15.80
2019-04-19T07:04:27.658Z,16.00
2019-04-19T07:09:50.540Z,16.20
2019-04-19T07:14:31.664Z,16.40
2019-04-19T07:19:52.785Z,16.60
2019-04-19T07:24:49.676Z,16.80
2019-04-19T07:29:33.715Z,17.20
2019-04-19T07:34:49.587Z,17.20
2019-04-19T07:40:02.395Z,17.40
2019-04-19T07:45:01.576Z,17.50
2019-04-19T07:50:08.339Z,17.60
2019-04-19T07:55:04.420Z,17.90
2019-04-19T08:00:36.912Z,18.00
2019-04-19T08:10:36.461Z,18.30
2019-04-19T08:15:40.812Z,18.40
2019-04-19T08:30:20.198Z,19.20
2019-04-19T08:35:17.764Z,19.40
2019-04-19T08:40:38.222Z,19.60
2019-04-19T08:45:45.085Z,19.90
2019-04-19T08:50:51.927Z,20.10
2019-04-19T08:56:08.876Z,20.40
2019-04-19T09:01:23.814Z,21.40
2019-04-19T09:06:36.425Z,22.20
2019-04-19T09:11:14.928Z,22.90
2019-04-19T09:16:12.687Z,23.60
2019-04-19T09:21:15.140Z,24.50
2019-04-19T09:26:20.667Z,25.30
2019-04-19T09:31:20.030Z,25.40
2019-04-19T09:36:08.473Z,24.80
2019-04-19T09:41:13.368Z,24.80
2019-04-19T09:46:06.270Z,25.20
2019-04-19T09:51:24.333Z,25.10
2019-04-19T09:56:29.219Z,25.30
2019-04-19T10:01:10.567Z,26.10
2019-04-19T10:06:10.907Z,27.10
2019-04-19T10:11:10.795Z,28.20
2019-04-19T10:16:18.780Z,28.10
2019-04-19T10:21:48.909Z,27.30
2019-04-19T10:26:58.969Z,28.20
2019-04-19T10:32:08.636Z,28.70
2019-04-19T10:37:08.025Z,27.80
2019-04-19T10:42:10.212Z,27.70
2019-04-19T10:47:10.252Z,27.50
2019-04-19T10:52:23.767Z,26.90
2019-04-19T10:57:25.730Z,27.70
2019-04-19T11:02:31.762Z,29.00
2019-04-19T11:07:32.759Z,28.30
2019-04-19T11:12:34.348Z,27.10
2019-04-19T11:17:34.129Z,26.80
2019-04-19T11:22:33.713Z,27.30
2019-04-19T11:27:33.258Z,27.10
2019-04-19T11:32:51.125Z,27.10
2019-04-19T11:37:53.009Z,28.00
2019-04-19T11:42:53.174Z,28.10
2019-04-19T11:47:53.384Z,28.60
2019-04-19T11:53:12.090Z,28.50
2019-04-19T11:58:14.676Z,28.50
2019-04-19T12:03:20.218Z,28.80
2019-04-19T12:08:20.447Z,28.60
2019-04-19T12:13:21.296Z,28.40
2019-04-19T12:18:22.033Z,28.30
2019-04-19T12:23:23.270Z,28.30
2019-04-19T12:28:24.033Z,28.50
2019-04-19T12:33:23.878Z,28.50
2019-04-19T12:38:24.124Z,28.30
2019-04-19T12:43:23.867Z,28.00
2019-04-19T12:48:23.786Z,27.70
2019-04-19T12:53:23.510Z,27.50
2019-04-19T12:58:23.994Z,27.40
2019-04-19T13:03:44.798Z,27.30
2019-04-19T13:08:45.325Z,27.80
2019-04-19T13:13:45.972Z,27.50
2019-04-19T13:18:48.410Z,27.40
2019-04-19T13:23:48.426Z,27.30
2019-04-19T13:28:49.447Z,27.10
2019-04-19T13:33:49.211Z,27.50
2019-04-19T13:39:06.879Z,27.50
2019-04-19T13:44:07.333Z,27.60
2019-04-19T13:49:06.986Z,27.80
2019-04-19T13:54:07.021Z,27.60
2019-04-19T13:59:07.644Z,27.70
2019-04-19T14:04:08.487Z,27.70
2019-04-19T14:09:11.525Z,27.70
2019-04-19T14:14:14.046Z,27.90
2019-04-19T14:19:13.996Z,28.40
2019-04-19T14:24:13.655Z,28.50
2019-04-19T14:29:15.129Z,28.40
2019-04-19T14:34:15.270Z,28.40
2019-04-19T14:39:16.322Z,28.70
2019-04-19T14:44:17.471Z,28.70
2019-04-19T14:49:17.188Z,28.30
2019-04-19T14:54:18.909Z,28.20
2019-04-19T14:59:18.716Z,28.30
2019-04-19T15:04:40.216Z,28.30
2019-04-19T15:09:39.639Z,28.40
2019-04-19T15:14:39.421Z,28.40
2019-04-19T15:19:39.694Z,28.20
2019-04-19T15:24:39.541Z,28.20
2019-04-19T15:29:41.030Z,28.00
2019-04-19T15:34:40.717Z,28.10
2019-04-19T15:39:40.260Z,28.20
2019-04-19T15:44:40.510Z,28.40
2019-04-19T15:49:40.187Z,28.40
2019-04-19T15:54:39.830Z,28.30
2019-04-19T15:59:40.986Z,28.50
2019-04-19T16:04:59.803Z,28.10
2019-04-19T16:10:22.343Z,28.10
2019-04-19T16:15:22.180Z,27.70
2019-04-19T16:20:23.016Z,27.70
2019-04-19T16:25:23.253Z,27.80
2019-04-19T16:30:24.087Z,27.50
2019-04-19T16:35:24.315Z,28.00
2019-04-19T16:40:24.601Z,27.80
2019-04-19T16:45:26.176Z,27.70
2019-04-19T16:50:25.802Z,27.70
2019-04-19T16:55:25.500Z,28.00
2019-04-19T17:00:38.768Z,28.20
2019-04-19T17:05:38.986Z,28.40
2019-04-19T17:10:40.600Z,28.50
2019-04-19T17:16:01.790Z,28.90
2019-04-19T17:21:10.551Z,27.70
2019-04-19T17:26:10.929Z,26.60
2019-04-19T17:31:11.875Z,25.20
2019-04-19T17:36:12.433Z,24.20
2019-04-19T17:41:12.480Z,23.30
2019-04-19T17:46:12.639Z,22.70
2019-04-19T17:51:13.674Z,22.40
2019-04-19T17:56:13.339Z,22.20
2019-04-19T18:01:12.940Z,21.90
2019-04-19T18:06:14.150Z,21.70
2019-04-19T18:11:20.944Z,21.40
2019-04-19T18:16:16.450Z,21.00
2019-04-19T18:21:16.555Z,20.80
2019-04-19T18:26:24.180Z,20.70
2019-04-19T18:31:25.993Z,20.60
2019-04-19T18:36:25.322Z,20.50
2019-04-19T18:41:23.083Z,20.50
2019-04-19T18:46:22.865Z,20.40
2019-04-19T18:51:34.097Z,20.10
2019-04-19T18:56:26.617Z,20.10
2019-04-19T19:01:32.347Z,20.00
2019-04-19T19:06:33.307Z,19.80
2019-04-19T19:11:28.230Z,19.70
2019-04-19T19:16:32.217Z,19.60
2019-04-19T19:21:36.343Z,19.50
2019-04-19T19:26:48.409Z,19.40
2019-04-19T19:31:34.990Z,19.10
2019-04-19T19:36:42.065Z,19.10
2019-04-19T19:47:29.432Z,19.00
2019-04-19T19:52:17.325Z,18.80
2019-04-19T19:57:18.379Z,18.60
2019-04-19T20:02:12.544Z,18.30
2019-04-19T20:07:05.305Z,18.20
2019-04-19T20:12:09.145Z,18.30
2019-04-19T20:17:07.959Z,18.30
2019-04-19T20:22:10.542Z,18.20
2019-04-19T20:27:17.761Z,18.00
2019-04-19T20:32:17.939Z,17.70
2019-04-19T20:37:19.401Z,17.50
2019-04-19T20:42:25.291Z,17.40
2019-04-19T20:47:23.168Z,17.30
2019-04-19T20:52:40.184Z,17.10
2019-04-19T20:58:01.032Z,17.20
2019-04-19T21:02:51.962Z,17.10
2019-04-19T21:07:58.511Z,17.00
2019-04-19T21:12:57.464Z,17.00
2019-04-19T21:17:55.984Z,16.90
2019-04-19T21:23:00.032Z,16.80
2019-04-19T21:27:59.907Z,16.60
2019-04-19T21:33:04.822Z,16.50
2019-04-19T21:38:08.235Z,16.40
2019-04-19T21:43:05.418Z,16.40
2019-04-19T21:48:03.348Z,16.30
2019-04-19T21:53:08.523Z,16.30
2019-04-19T21:58:10.409Z,16.20
2019-04-19T22:03:13.915Z,16.10
2019-04-19T22:08:08.156Z,15.90
2019-04-19T22:13:08.384Z,15.70
2019-04-19T22:18:08.876Z,15.80
2019-04-19T22:23:11.586Z,15.60
2019-04-19T22:28:11.808Z,15.60
2019-04-19T22:33:12.658Z,15.50
2019-04-19T22:38:17.240Z,15.30
2019-04-19T22:43:15.118Z,15.10
2019-04-19T22:48:18.320Z,15.10
2019-04-19T22:53:19.065Z,15.00
2019-04-19T22:58:23.174Z,14.80
2019-04-19T23:03:29.715Z,14.90
2019-04-19T23:08:30.784Z,14.70
2019-04-19T23:13:27.174Z,14.50
2019-04-19T23:18:28.565Z,14.40
2019-04-19T23:23:32.566Z,14.30
2019-04-19T23:28:33.950Z,14.30
2019-04-19T23:33:32.325Z,14.30
2019-04-19T23:38:34.260Z,14.20
2019-04-19T23:43:37.256Z,14.20
2019-04-19T23:48:35.706Z,14.20
2019-04-19T23:53:39.564Z,14.20
2019-04-19T23:58:39.610Z,14.30
